sensor_id;sensor_type;location;lat;lon;timestamp;P1;durP1;ratioP1;P2;durP2;ratioP2
17812;SDS011;9030;50.792;8.320;2023-09-07T00:02:26;12.73;;;7.78;;
17812;SDS011;9030;50.792;8.320;2023-09-07T00:04:53;12.18;;;7.10;;
17812;SDS011;9030;50.792;8.320;2023-09-07T00:07:19;14.05;;;7.75;;
17812;SDS011;9030;50.792;8.320;2023-09-07T00:09:46;13.88;;;8.15;;
17812;SDS011;9030;50.792;8.320;2023-09-07T00:12:12;11.82;;;7.00;;
17812;SDS011;9030;50.792;8.320;2023-09-07T00:14:39;13.93;;;6.78;;
17812;SDS011;9030;50.792;8.320;2023-09-07T00:17:06;10.32;;;6.90;;
17812;SDS011;9030;50.792;8.320;2023-09-07T00:19:34;11.65;;;7.32;;
17812;SDS011;9030;50.792;8.320;2023-09-07T00:22:01;12.95;;;7.80;;
17812;SDS011;9030;50.792;8.320;2023-09-07T00:24:29;12.50;;;7.60;;
17812;SDS011;9030;50.792;8.320;2023-09-07T00:26:56;10.32;;;6.95;;
17812;SDS011;9030;50.792;8.320;2023-09-07T00:29:23;11.55;;;7.22;;
17812;SDS011;9030;50.792;8.320;2023-09-07T00:31:49;14.30;;;8.20;;
17812;SDS011;9030;50.792;8.320;2023-09-07T00:34:16;14.27;;;8.30;;
17812;SDS011;9030;50.792;8.320;2023-09-07T00:36:44;12.30;;;7.18;;
17812;SDS011;9030;50.792;8.320;2023-09-07T00:39:10;11.55;;;7.35;;
17812;SDS011;9030;50.792;8.320;2023-09-07T00:41:37;10.27;;;6.80;;
17812;SDS011;9030;50.792;8.320;2023-09-07T00:44:04;11.60;;;6.93;;
17812;SDS011;9030;50.792;8.320;2023-09-07T00:46:31;10.95;;;7.70;;
17812;SDS011;9030;50.792;8.320;2023-09-07T00:48:57;14.43;;;7.75;;
17812;SDS011;9030;50.792;8.320;2023-09-07T00:51:24;12.35;;;6.35;;
17812;SDS011;9030;50.792;8.320;2023-09-07T00:53:52;11.15;;;7.60;;
17812;SDS011;9030;50.792;8.320;2023-09-07T00:56:19;12.63;;;7.32;;
17812;SDS011;9030;50.792;8.320;2023-09-07T00:58:46;12.60;;;7.65;;
17812;SDS011;9030;50.792;8.320;2023-09-07T01:01:12;14.48;;;8.25;;
17812;SDS011;9030;50.792;8.320;2023-09-07T01:03:39;12.15;;;8.73;;
17812;SDS011;9030;50.792;8.320;2023-09-07T01:06:07;13.38;;;7.53;;
17812;SDS011;9030;50.792;8.320;2023-09-07T01:08:39;14.45;;;8.13;;
17812;SDS011;9030;50.792;8.320;2023-09-07T01:11:16;12.18;;;8.50;;
17812;SDS011;9030;50.792;8.320;2023-09-07T01:13:45;12.57;;;7.85;;
17812;SDS011;9030;50.792;8.320;2023-09-07T01:16:12;12.48;;;7.53;;
17812;SDS011;9030;50.792;8.320;2023-09-07T01:18:39;17.35;;;8.80;;
17812;SDS011;9030;50.792;8.320;2023-09-07T01:21:07;14.73;;;8.63;;
17812;SDS011;9030;50.792;8.320;2023-09-07T01:23:36;15.60;;;8.88;;
17812;SDS011;9030;50.792;8.320;2023-09-07T01:26:06;9.75;;;6.88;;
17812;SDS011;9030;50.792;8.320;2023-09-07T01:28:33;10.48;;;6.95;;
17812;SDS011;9030;50.792;8.320;2023-09-07T01:31:00;15.20;;;9.10;;
17812;SDS011;9030;50.792;8.320;2023-09-07T01:33:27;19.10;;;9.35;;
17812;SDS011;9030;50.792;8.320;2023-09-07T01:35:53;13.25;;;9.00;;
17812;SDS011;9030;50.792;8.320;2023-09-07T01:38:20;11.85;;;8.65;;
17812;SDS011;9030;50.792;8.320;2023-09-07T01:40:48;13.80;;;8.55;;
17812;SDS011;9030;50.792;8.320;2023-09-07T01:43:15;13.13;;;7.97;;
17812;SDS011;9030;50.792;8.320;2023-09-07T01:45:42;11.70;;;8.55;;
17812;SDS011;9030;50.792;8.320;2023-09-07T01:48:08;14.23;;;8.43;;
17812;SDS011;9030;50.792;8.320;2023-09-07T01:50:36;12.93;;;7.95;;
17812;SDS011;9030;50.792;8.320;2023-09-07T01:53:03;11.52;;;7.75;;
17812;SDS011;9030;50.792;8.320;2023-09-07T01:55:30;15.95;;;10.38;;
17812;SDS011;9030;50.792;8.320;2023-09-07T01:57:58;11.40;;;8.35;;
17812;SDS011;9030;50.792;8.320;2023-09-07T02:00:24;11.90;;;7.55;;
17812;SDS011;9030;50.792;8.320;2023-09-07T02:02:51;11.77;;;8.57;;
17812;SDS011;9030;50.792;8.320;2023-09-07T02:05:18;10.35;;;7.22;;
17812;SDS011;9030;50.792;8.320;2023-09-07T02:07:46;9.52;;;6.80;;
17812;SDS011;9030;50.792;8.320;2023-09-07T02:10:14;13.27;;;8.15;;
17812;SDS011;9030;50.792;8.320;2023-09-07T02:12:41;11.48;;;8.75;;
17812;SDS011;9030;50.792;8.320;2023-09-07T02:15:09;10.73;;;8.57;;
17812;SDS011;9030;50.792;8.320;2023-09-07T02:17:36;12.70;;;8.50;;
17812;SDS011;9030;50.792;8.320;2023-09-07T02:20:03;15.18;;;8.65;;
17812;SDS011;9030;50.792;8.320;2023-09-07T02:22:35;15.13;;;9.48;;
17812;SDS011;9030;50.792;8.320;2023-09-07T02:25:02;12.43;;;8.07;;
17812;SDS011;9030;50.792;8.320;2023-09-07T02:27:30;11.95;;;8.35;;
17812;SDS011;9030;50.792;8.320;2023-09-07T02:29:57;14.15;;;9.02;;
17812;SDS011;9030;50.792;8.320;2023-09-07T02:32:26;12.93;;;9.02;;
17812;SDS011;9030;50.792;8.320;2023-09-07T02:34:53;16.92;;;8.45;;
17812;SDS011;9030;50.792;8.320;2023-09-07T02:37:20;10.88;;;8.43;;
17812;SDS011;9030;50.792;8.320;2023-09-07T02:39:46;14.57;;;8.95;;
17812;SDS011;9030;50.792;8.320;2023-09-07T02:42:13;10.25;;;7.68;;
17812;SDS011;9030;50.792;8.320;2023-09-07T02:44:39;17.95;;;9.80;;
17812;SDS011;9030;50.792;8.320;2023-09-07T02:47:06;13.43;;;8.45;;
17812;SDS011;9030;50.792;8.320;2023-09-07T02:49:34;13.45;;;9.15;;
17812;SDS011;9030;50.792;8.320;2023-09-07T02:52:01;11.30;;;8.30;;
17812;SDS011;9030;50.792;8.320;2023-09-07T02:54:27;11.13;;;7.82;;
17812;SDS011;9030;50.792;8.320;2023-09-07T02:56:54;10.73;;;7.75;;
17812;SDS011;9030;50.792;8.320;2023-09-07T02:59:21;11.55;;;7.78;;
17812;SDS011;9030;50.792;8.320;2023-09-07T03:01:47;13.50;;;8.43;;
17812;SDS011;9030;50.792;8.320;2023-09-07T03:04:14;12.68;;;7.80;;
17812;SDS011;9030;50.792;8.320;2023-09-07T03:06:42;14.45;;;7.82;;
17812;SDS011;9030;50.792;8.320;2023-09-07T03:09:09;14.68;;;8.45;;
17812;SDS011;9030;50.792;8.320;2023-09-07T03:11:35;17.85;;;8.43;;
17812;SDS011;9030;50.792;8.320;2023-09-07T03:14:02;12.00;;;7.47;;
17812;SDS011;9030;50.792;8.320;2023-09-07T03:16:29;15.70;;;8.25;;
17812;SDS011;9030;50.792;8.320;2023-09-07T03:18:56;13.90;;;7.85;;
17812;SDS011;9030;50.792;8.320;2023-09-07T03:21:22;14.40;;;8.52;;
17812;SDS011;9030;50.792;8.320;2023-09-07T03:23:55;16.05;;;8.70;;
17812;SDS011;9030;50.792;8.320;2023-09-07T03:26:22;14.73;;;8.35;;
17812;SDS011;9030;50.792;8.320;2023-09-07T03:28:48;13.27;;;8.27;;
17812;SDS011;9030;50.792;8.320;2023-09-07T03:31:15;13.77;;;9.57;;
17812;SDS011;9030;50.792;8.320;2023-09-07T03:33:42;12.23;;;8.10;;
17812;SDS011;9030;50.792;8.320;2023-09-07T03:36:08;13.20;;;8.60;;
17812;SDS011;9030;50.792;8.320;2023-09-07T03:38:38;12.98;;;8.20;;
17812;SDS011;9030;50.792;8.320;2023-09-07T03:41:06;17.08;;;9.05;;
17812;SDS011;9030;50.792;8.320;2023-09-07T03:43:33;12.40;;;8.88;;
17812;SDS011;9030;50.792;8.320;2023-09-07T03:46:00;13.00;;;8.98;;
17812;SDS011;9030;50.792;8.320;2023-09-07T03:48:27;13.48;;;8.32;;
17812;SDS011;9030;50.792;8.320;2023-09-07T03:50:53;12.57;;;8.70;;
17812;SDS011;9030;50.792;8.320;2023-09-07T03:53:20;13.05;;;10.05;;
17812;SDS011;9030;50.792;8.320;2023-09-07T03:55:46;15.70;;;11.02;;
17812;SDS011;9030;50.792;8.320;2023-09-07T03:58:14;16.10;;;10.40;;
17812;SDS011;9030;50.792;8.320;2023-09-07T04:00:41;12.95;;;9.05;;
17812;SDS011;9030;50.792;8.320;2023-09-07T04:03:08;14.25;;;9.27;;
17812;SDS011;9030;50.792;8.320;2023-09-07T04:05:36;13.02;;;10.32;;
17812;SDS011;9030;50.792;8.320;2023-09-07T04:08:03;13.20;;;9.25;;
17812;SDS011;9030;50.792;8.320;2023-09-07T04:10:30;13.57;;;9.20;;
17812;SDS011;9030;50.792;8.320;2023-09-07T04:12:57;11.95;;;9.55;;
17812;SDS011;9030;50.792;8.320;2023-09-07T04:15:24;16.17;;;10.43;;
17812;SDS011;9030;50.792;8.320;2023-09-07T04:17:51;12.73;;;10.00;;
17812;SDS011;9030;50.792;8.320;2023-09-07T04:20:20;14.60;;;10.90;;
17812;SDS011;9030;50.792;8.320;2023-09-07T04:22:46;12.13;;;9.32;;
17812;SDS011;9030;50.792;8.320;2023-09-07T04:25:13;16.85;;;10.77;;
17812;SDS011;9030;50.792;8.320;2023-09-07T04:27:40;15.63;;;11.07;;
17812;SDS011;9030;50.792;8.320;2023-09-07T04:30:07;13.10;;;9.63;;
17812;SDS011;9030;50.792;8.320;2023-09-07T04:32:35;14.15;;;9.85;;
17812;SDS011;9030;50.792;8.320;2023-09-07T04:35:02;14.30;;;10.20;;
17812;SDS011;9030;50.792;8.320;2023-09-07T04:37:35;14.02;;;11.43;;
17812;SDS011;9030;50.792;8.320;2023-09-07T04:40:02;17.15;;;12.73;;
17812;SDS011;9030;50.792;8.320;2023-09-07T04:42:30;16.10;;;11.70;;
17812;SDS011;9030;50.792;8.320;2023-09-07T04:44:57;14.90;;;11.27;;
17812;SDS011;9030;50.792;8.320;2023-09-07T04:47:23;18.63;;;11.52;;
17812;SDS011;9030;50.792;8.320;2023-09-07T04:49:51;28.48;;;10.13;;
17812;SDS011;9030;50.792;8.320;2023-09-07T04:52:18;13.35;;;10.15;;
17812;SDS011;9030;50.792;8.320;2023-09-07T04:54:44;13.60;;;10.50;;
17812;SDS011;9030;50.792;8.320;2023-09-07T04:57:14;16.60;;;11.55;;
17812;SDS011;9030;50.792;8.320;2023-09-07T04:59:42;13.38;;;11.15;;
17812;SDS011;9030;50.792;8.320;2023-09-07T05:02:08;14.70;;;11.25;;
17812;SDS011;9030;50.792;8.320;2023-09-07T05:04:36;13.55;;;11.10;;
17812;SDS011;9030;50.792;8.320;2023-09-07T05:07:04;15.50;;;11.32;;
17812;SDS011;9030;50.792;8.320;2023-09-07T05:09:31;15.77;;;11.18;;
17812;SDS011;9030;50.792;8.320;2023-09-07T05:11:58;14.95;;;12.75;;
17812;SDS011;9030;50.792;8.320;2023-09-07T05:14:25;13.43;;;11.00;;
17812;SDS011;9030;50.792;8.320;2023-09-07T05:16:51;16.23;;;11.98;;
17812;SDS011;9030;50.792;8.320;2023-09-07T05:19:18;14.27;;;11.88;;
17812;SDS011;9030;50.792;8.320;2023-09-07T05:21:44;15.77;;;10.73;;
17812;SDS011;9030;50.792;8.320;2023-09-07T05:24:13;15.02;;;9.45;;
17812;SDS011;9030;50.792;8.320;2023-09-07T05:26:41;13.13;;;10.40;;
17812;SDS011;9030;50.792;8.320;2023-09-07T05:29:08;13.77;;;9.73;;
17812;SDS011;9030;50.792;8.320;2023-09-07T05:31:35;15.75;;;8.82;;
17812;SDS011;9030;50.792;8.320;2023-09-07T05:34:01;14.27;;;8.70;;
17812;SDS011;9030;50.792;8.320;2023-09-07T05:36:28;14.85;;;11.05;;
17812;SDS011;9030;50.792;8.320;2023-09-07T05:38:55;14.18;;;11.10;;
17812;SDS011;9030;50.792;8.320;2023-09-07T05:41:23;15.70;;;11.50;;
17812;SDS011;9030;50.792;8.320;2023-09-07T05:43:50;15.85;;;11.20;;
17812;SDS011;9030;50.792;8.320;2023-09-07T05:46:17;14.45;;;11.32;;
17812;SDS011;9030;50.792;8.320;2023-09-07T05:48:43;16.10;;;11.63;;
17812;SDS011;9030;50.792;8.320;2023-09-07T05:51:10;15.52;;;10.50;;
17812;SDS011;9030;50.792;8.320;2023-09-07T05:53:36;14.10;;;8.98;;
17812;SDS011;9030;50.792;8.320;2023-09-07T05:56:04;16.02;;;12.35;;
17812;SDS011;9030;50.792;8.320;2023-09-07T05:58:32;15.07;;;12.15;;
17812;SDS011;9030;50.792;8.320;2023-09-07T06:00:59;15.32;;;11.50;;
17812;SDS011;9030;50.792;8.320;2023-09-07T06:03:26;18.10;;;11.90;;
17812;SDS011;9030;50.792;8.320;2023-09-07T06:05:52;15.68;;;13.63;;
17812;SDS011;9030;50.792;8.320;2023-09-07T06:08:19;16.98;;;12.57;;
17812;SDS011;9030;50.792;8.320;2023-09-07T06:10:46;17.60;;;11.55;;
17812;SDS011;9030;50.792;8.320;2023-09-07T06:13:12;19.42;;;11.93;;
17812;SDS011;9030;50.792;8.320;2023-09-07T06:15:41;18.98;;;11.50;;
17812;SDS011;9030;50.792;8.320;2023-09-07T06:18:08;14.93;;;10.95;;
17812;SDS011;9030;50.792;8.320;2023-09-07T06:20:34;16.45;;;11.38;;
17812;SDS011;9030;50.792;8.320;2023-09-07T06:23:01;15.93;;;11.25;;
17812;SDS011;9030;50.792;8.320;2023-09-07T06:25:27;14.80;;;10.65;;
17812;SDS011;9030;50.792;8.320;2023-09-07T06:27:54;14.00;;;10.43;;
17812;SDS011;9030;50.792;8.320;2023-09-07T06:30:21;15.00;;;10.30;;
17812;SDS011;9030;50.792;8.320;2023-09-07T06:32:49;16.08;;;10.70;;
17812;SDS011;9030;50.792;8.320;2023-09-07T06:35:16;14.18;;;10.48;;
17812;SDS011;9030;50.792;8.320;2023-09-07T06:37:43;16.42;;;11.02;;
17812;SDS011;9030;50.792;8.320;2023-09-07T06:40:10;16.55;;;10.45;;
17812;SDS011;9030;50.792;8.320;2023-09-07T06:42:38;18.90;;;9.70;;
17812;SDS011;9030;50.792;8.320;2023-09-07T06:45:05;14.90;;;10.10;;
17812;SDS011;9030;50.792;8.320;2023-09-07T06:47:33;13.40;;;9.57;;
17812;SDS011;9030;50.792;8.320;2023-09-07T06:50:01;13.85;;;10.85;;
17812;SDS011;9030;50.792;8.320;2023-09-07T06:52:28;15.23;;;10.40;;
17812;SDS011;9030;50.792;8.320;2023-09-07T06:54:55;16.80;;;11.38;;
17812;SDS011;9030;50.792;8.320;2023-09-07T06:57:21;23.02;;;10.55;;
17812;SDS011;9030;50.792;8.320;2023-09-07T06:59:48;15.70;;;9.85;;
17812;SDS011;9030;50.792;8.320;2023-09-07T07:02:15;17.58;;;9.70;;
17812;SDS011;9030;50.792;8.320;2023-09-07T07:04:41;14.43;;;9.18;;
17812;SDS011;9030;50.792;8.320;2023-09-07T07:07:10;12.38;;;8.80;;
17812;SDS011;9030;50.792;8.320;2023-09-07T07:09:37;15.43;;;10.45;;
17812;SDS011;9030;50.792;8.320;2023-09-07T07:12:04;12.60;;;8.77;;
17812;SDS011;9030;50.792;8.320;2023-09-07T07:14:31;14.20;;;8.77;;
17812;SDS011;9030;50.792;8.320;2023-09-07T07:16:57;15.95;;;9.38;;
17812;SDS011;9030;50.792;8.320;2023-09-07T07:19:24;13.27;;;8.48;;
17812;SDS011;9030;50.792;8.320;2023-09-07T07:21:51;13.23;;;9.05;;
17812;SDS011;9030;50.792;8.320;2023-09-07T07:24:19;12.68;;;7.32;;
17812;SDS011;9030;50.792;8.320;2023-09-07T07:26:45;15.10;;;7.85;;
17812;SDS011;9030;50.792;8.320;2023-09-07T07:29:12;12.45;;;6.95;;
17812;SDS011;9030;50.792;8.320;2023-09-07T07:31:39;14.38;;;7.82;;
17812;SDS011;9030;50.792;8.320;2023-09-07T07:34:06;13.02;;;8.30;;
17812;SDS011;9030;50.792;8.320;2023-09-07T07:36:32;15.07;;;8.98;;
17812;SDS011;9030;50.792;8.320;2023-09-07T07:38:59;11.88;;;6.40;;
17812;SDS011;9030;50.792;8.320;2023-09-07T07:41:27;13.15;;;8.13;;
17812;SDS011;9030;50.792;8.320;2023-09-07T07:43:53;12.13;;;7.22;;
17812;SDS011;9030;50.792;8.320;2023-09-07T07:46:20;10.55;;;6.32;;
17812;SDS011;9030;50.792;8.320;2023-09-07T07:48:47;11.55;;;6.93;;
17812;SDS011;9030;50.792;8.320;2023-09-07T07:51:13;9.50;;;6.32;;
17812;SDS011;9030;50.792;8.320;2023-09-07T07:53:40;10.30;;;6.63;;
17812;SDS011;9030;50.792;8.320;2023-09-07T07:56:13;9.00;;;6.32;;
17812;SDS011;9030;50.792;8.320;2023-09-07T07:58:42;13.43;;;6.72;;
17812;SDS011;9030;50.792;8.320;2023-09-07T08:01:12;12.40;;;6.72;;
17812;SDS011;9030;50.792;8.320;2023-09-07T08:03:40;10.40;;;6.55;;
17812;SDS011;9030;50.792;8.320;2023-09-07T08:06:07;8.40;;;6.32;;
17812;SDS011;9030;50.792;8.320;2023-09-07T08:08:33;9.82;;;6.38;;
17812;SDS011;9030;50.792;8.320;2023-09-07T08:11:00;14.73;;;6.35;;
17812;SDS011;9030;50.792;8.320;2023-09-07T08:13:30;12.20;;;6.25;;
17812;SDS011;9030;50.792;8.320;2023-09-07T08:15:59;13.35;;;6.15;;
17812;SDS011;9030;50.792;8.320;2023-09-07T08:18:26;12.13;;;6.63;;
17812;SDS011;9030;50.792;8.320;2023-09-07T08:20:53;13.00;;;6.55;;
17812;SDS011;9030;50.792;8.320;2023-09-07T08:23:20;11.43;;;6.47;;
17812;SDS011;9030;50.792;8.320;2023-09-07T08:25:47;9.65;;;6.60;;
17812;SDS011;9030;50.792;8.320;2023-09-07T08:28:13;9.32;;;6.28;;
17812;SDS011;9030;50.792;8.320;2023-09-07T08:30:41;8.02;;;5.63;;
17812;SDS011;9030;50.792;8.320;2023-09-07T08:33:09;10.85;;;6.93;;
17812;SDS011;9030;50.792;8.320;2023-09-07T08:35:35;10.93;;;6.22;;
17812;SDS011;9030;50.792;8.320;2023-09-07T08:38:09;11.82;;;6.10;;
17812;SDS011;9030;50.792;8.320;2023-09-07T08:40:35;10.13;;;5.95;;
17812;SDS011;9030;50.792;8.320;2023-09-07T08:43:05;8.02;;;5.78;;
17812;SDS011;9030;50.792;8.320;2023-09-07T08:45:37;10.20;;;5.68;;
17812;SDS011;9030;50.792;8.320;2023-09-07T08:48:14;10.45;;;5.72;;
17812;SDS011;9030;50.792;8.320;2023-09-07T08:50:43;9.38;;;5.85;;
17812;SDS011;9030;50.792;8.320;2023-09-07T08:53:15;9.20;;;5.22;;
17812;SDS011;9030;50.792;8.320;2023-09-07T08:55:44;8.50;;;5.53;;
17812;SDS011;9030;50.792;8.320;2023-09-07T08:58:10;10.75;;;6.60;;
17812;SDS011;9030;50.792;8.320;2023-09-07T09:00:37;11.07;;;5.80;;
17812;SDS011;9030;50.792;8.320;2023-09-07T09:03:08;9.13;;;5.40;;
17812;SDS011;9030;50.792;8.320;2023-09-07T09:05:36;9.65;;;5.82;;
17812;SDS011;9030;50.792;8.320;2023-09-07T09:08:05;9.63;;;5.18;;
17812;SDS011;9030;50.792;8.320;2023-09-07T09:10:32;9.73;;;5.18;;
17812;SDS011;9030;50.792;8.320;2023-09-07T09:12:58;11.27;;;5.50;;
17812;SDS011;9030;50.792;8.320;2023-09-07T09:15:25;11.98;;;5.32;;
17812;SDS011;9030;50.792;8.320;2023-09-07T09:17:52;8.00;;;4.70;;
17812;SDS011;9030;50.792;8.320;2023-09-07T09:20:20;9.35;;;6.03;;
17812;SDS011;9030;50.792;8.320;2023-09-07T09:22:49;9.20;;;5.95;;
17812;SDS011;9030;50.792;8.320;2023-09-07T09:25:17;9.30;;;5.22;;
17812;SDS011;9030;50.792;8.320;2023-09-07T09:27:43;10.98;;;5.72;;
17812;SDS011;9030;50.792;8.320;2023-09-07T09:30:10;12.38;;;5.60;;
17812;SDS011;9030;50.792;8.320;2023-09-07T09:32:40;10.98;;;4.82;;
17812;SDS011;9030;50.792;8.320;2023-09-07T09:35:07;9.85;;;5.57;;
17812;SDS011;9030;50.792;8.320;2023-09-07T09:37:34;8.23;;;4.70;;
17812;SDS011;9030;50.792;8.320;2023-09-07T09:40:10;8.98;;;5.03;;
17812;SDS011;9030;50.792;8.320;2023-09-07T09:42:38;7.03;;;4.90;;
17812;SDS011;9030;50.792;8.320;2023-09-07T09:45:06;7.25;;;4.65;;
17812;SDS011;9030;50.792;8.320;2023-09-07T09:47:35;11.13;;;6.18;;
17812;SDS011;9030;50.792;8.320;2023-09-07T09:50:05;8.73;;;4.82;;
17812;SDS011;9030;50.792;8.320;2023-09-07T09:52:33;10.40;;;5.07;;
17812;SDS011;9030;50.792;8.320;2023-09-07T09:55:02;9.77;;;4.22;;
17812;SDS011;9030;50.792;8.320;2023-09-07T09:57:34;8.82;;;5.43;;
17812;SDS011;9030;50.792;8.320;2023-09-07T10:00:01;11.25;;;6.20;;
17812;SDS011;9030;50.792;8.320;2023-09-07T10:02:35;8.70;;;5.35;;
17812;SDS011;9030;50.792;8.320;2023-09-07T10:05:04;7.25;;;4.25;;
17812;SDS011;9030;50.792;8.320;2023-09-07T10:07:41;7.85;;;5.00;;
17812;SDS011;9030;50.792;8.320;2023-09-07T10:10:09;11.70;;;4.93;;
17812;SDS011;9030;50.792;8.320;2023-09-07T10:12:42;6.20;;;4.30;;
17812;SDS011;9030;50.792;8.320;2023-09-07T10:15:21;8.23;;;4.72;;
17812;SDS011;9030;50.792;8.320;2023-09-07T10:17:49;8.25;;;4.38;;
17812;SDS011;9030;50.792;8.320;2023-09-07T10:20:17;7.57;;;4.22;;
17812;SDS011;9030;50.792;8.320;2023-09-07T10:22:45;10.43;;;5.03;;
17812;SDS011;9030;50.792;8.320;2023-09-07T10:25:19;6.85;;;3.95;;
17812;SDS011;9030;50.792;8.320;2023-09-07T10:27:48;9.73;;;5.97;;
17812;SDS011;9030;50.792;8.320;2023-09-07T10:30:15;7.40;;;4.47;;
17812;SDS011;9030;50.792;8.320;2023-09-07T10:32:47;6.35;;;4.20;;
17812;SDS011;9030;50.792;8.320;2023-09-07T10:35:14;10.57;;;5.45;;
17812;SDS011;9030;50.792;8.320;2023-09-07T10:37:43;8.10;;;4.28;;
17812;SDS011;9030;50.792;8.320;2023-09-07T10:40:11;9.63;;;4.45;;
17812;SDS011;9030;50.792;8.320;2023-09-07T10:42:39;9.25;;;5.50;;
17812;SDS011;9030;50.792;8.320;2023-09-07T10:45:11;9.30;;;5.00;;
17812;SDS011;9030;50.792;8.320;2023-09-07T10:47:41;6.63;;;4.30;;
17812;SDS011;9030;50.792;8.320;2023-09-07T10:50:09;13.95;;;4.72;;
17812;SDS011;9030;50.792;8.320;2023-09-07T10:52:37;7.60;;;4.43;;
17812;SDS011;9030;50.792;8.320;2023-09-07T10:55:05;8.35;;;4.43;;
17812;SDS011;9030;50.792;8.320;2023-09-07T10:57:32;8.15;;;4.68;;
17812;SDS011;9030;50.792;8.320;2023-09-07T11:00:07;8.10;;;4.25;;
17812;SDS011;9030;50.792;8.320;2023-09-07T11:02:37;8.57;;;4.75;;
17812;SDS011;9030;50.792;8.320;2023-09-07T11:05:04;9.63;;;4.53;;
17812;SDS011;9030;50.792;8.320;2023-09-07T11:07:31;6.68;;;4.85;;
17812;SDS011;9030;50.792;8.320;2023-09-07T11:09:58;7.38;;;4.75;;
17812;SDS011;9030;50.792;8.320;2023-09-07T11:12:25;9.65;;;4.50;;
17812;SDS011;9030;50.792;8.320;2023-09-07T11:14:51;8.13;;;4.55;;
17812;SDS011;9030;50.792;8.320;2023-09-07T11:17:25;10.00;;;4.78;;
17812;SDS011;9030;50.792;8.320;2023-09-07T11:19:54;8.18;;;5.13;;
17812;SDS011;9030;50.792;8.320;2023-09-07T11:22:21;7.43;;;4.90;;
17812;SDS011;9030;50.792;8.320;2023-09-07T11:24:48;8.25;;;5.38;;
17812;SDS011;9030;50.792;8.320;2023-09-07T11:27:16;6.75;;;4.25;;
17812;SDS011;9030;50.792;8.320;2023-09-07T11:29:49;8.73;;;4.60;;
17812;SDS011;9030;50.792;8.320;2023-09-07T11:32:17;7.50;;;5.05;;
17812;SDS011;9030;50.792;8.320;2023-09-07T11:34:46;9.18;;;5.28;;
17812;SDS011;9030;50.792;8.320;2023-09-07T11:37:15;6.18;;;4.20;;
17812;SDS011;9030;50.792;8.320;2023-09-07T11:39:42;11.70;;;5.97;;
17812;SDS011;9030;50.792;8.320;2023-09-07T11:42:09;8.85;;;4.68;;
17812;SDS011;9030;50.792;8.320;2023-09-07T11:44:36;9.93;;;4.78;;
17812;SDS011;9030;50.792;8.320;2023-09-07T11:47:02;7.38;;;4.60;;
17812;SDS011;9030;50.792;8.320;2023-09-07T11:49:29;9.35;;;4.75;;
17812;SDS011;9030;50.792;8.320;2023-09-07T11:51:57;8.35;;;5.03;;
17812;SDS011;9030;50.792;8.320;2023-09-07T11:54:25;9.50;;;4.68;;
17812;SDS011;9030;50.792;8.320;2023-09-07T11:56:52;10.90;;;4.85;;
17812;SDS011;9030;50.792;8.320;2023-09-07T11:59:19;11.98;;;5.47;;
17812;SDS011;9030;50.792;8.320;2023-09-07T12:01:45;6.97;;;4.80;;
17812;SDS011;9030;50.792;8.320;2023-09-07T12:04:12;8.65;;;4.85;;
17812;SDS011;9030;50.792;8.320;2023-09-07T12:06:39;10.40;;;5.40;;
17812;SDS011;9030;50.792;8.320;2023-09-07T12:09:06;9.68;;;5.30;;
17812;SDS011;9030;50.792;8.320;2023-09-07T12:11:35;8.20;;;5.30;;
17812;SDS011;9030;50.792;8.320;2023-09-07T12:14:02;13.35;;;5.40;;
17812;SDS011;9030;50.792;8.320;2023-09-07T12:16:30;9.95;;;5.47;;
17812;SDS011;9030;50.792;8.320;2023-09-07T12:18:57;9.60;;;5.35;;
17812;SDS011;9030;50.792;8.320;2023-09-07T12:21:24;9.40;;;4.97;;
17812;SDS011;9030;50.792;8.320;2023-09-07T12:23:50;7.55;;;4.78;;
17812;SDS011;9030;50.792;8.320;2023-09-07T12:26:17;8.95;;;5.57;;
17812;SDS011;9030;50.792;8.320;2023-09-07T12:28:47;15.35;;;5.72;;
17812;SDS011;9030;50.792;8.320;2023-09-07T12:31:13;7.40;;;4.53;;
17812;SDS011;9030;50.792;8.320;2023-09-07T12:33:41;20.23;;;5.50;;
17812;SDS011;9030;50.792;8.320;2023-09-07T12:36:08;6.25;;;4.25;;
17812;SDS011;9030;50.792;8.320;2023-09-07T12:38:36;9.90;;;4.78;;
17812;SDS011;9030;50.792;8.320;2023-09-07T12:41:03;9.38;;;5.07;;
17812;SDS011;9030;50.792;8.320;2023-09-07T12:43:30;10.27;;;5.28;;
17812;SDS011;9030;50.792;8.320;2023-09-07T12:45:58;10.27;;;5.13;;
17812;SDS011;9030;50.792;8.320;2023-09-07T12:48:25;9.90;;;5.95;;
17812;SDS011;9030;50.792;8.320;2023-09-07T12:50:51;7.22;;;4.82;;
17812;SDS011;9030;50.792;8.320;2023-09-07T12:53:19;12.02;;;4.63;;
17812;SDS011;9030;50.792;8.320;2023-09-07T12:55:49;6.72;;;4.88;;
17812;SDS011;9030;50.792;8.320;2023-09-07T12:58:16;10.43;;;4.72;;
17812;SDS011;9030;50.792;8.320;2023-09-07T13:00:43;9.45;;;5.80;;
17812;SDS011;9030;50.792;8.320;2023-09-07T13:03:11;8.88;;;5.07;;
17812;SDS011;9030;50.792;8.320;2023-09-07T13:05:38;9.63;;;4.80;;
17812;SDS011;9030;50.792;8.320;2023-09-07T13:08:04;9.88;;;5.43;;
17812;SDS011;9030;50.792;8.320;2023-09-07T13:10:31;9.15;;;4.60;;
17812;SDS011;9030;50.792;8.320;2023-09-07T13:12:58;9.25;;;4.95;;
17812;SDS011;9030;50.792;8.320;2023-09-07T13:15:24;10.18;;;5.60;;
17812;SDS011;9030;50.792;8.320;2023-09-07T13:17:51;10.30;;;5.28;;
17812;SDS011;9030;50.792;8.320;2023-09-07T13:20:19;10.70;;;4.95;;
17812;SDS011;9030;50.792;8.320;2023-09-07T13:22:46;8.18;;;5.22;;
17812;SDS011;9030;50.792;8.320;2023-09-07T13:25:13;8.38;;;4.40;;
17812;SDS011;9030;50.792;8.320;2023-09-07T13:27:39;10.00;;;5.38;;
17812;SDS011;9030;50.792;8.320;2023-09-07T13:30:06;9.05;;;4.85;;
17812;SDS011;9030;50.792;8.320;2023-09-07T13:32:33;9.20;;;5.55;;
17812;SDS011;9030;50.792;8.320;2023-09-07T13:35:00;11.27;;;5.85;;
17812;SDS011;9030;50.792;8.320;2023-09-07T13:37:29;10.50;;;5.03;;
17812;SDS011;9030;50.792;8.320;2023-09-07T13:39:55;10.20;;;5.35;;
17812;SDS011;9030;50.792;8.320;2023-09-07T13:42:22;9.68;;;5.47;;
17812;SDS011;9030;50.792;8.320;2023-09-07T13:44:49;13.38;;;4.70;;
17812;SDS011;9030;50.792;8.320;2023-09-07T13:47:15;9.27;;;5.97;;
17812;SDS011;9030;50.792;8.320;2023-09-07T13:49:42;10.40;;;5.53;;
17812;SDS011;9030;50.792;8.320;2023-09-07T13:52:09;11.57;;;5.68;;
17812;SDS011;9030;50.792;8.320;2023-09-07T13:54:37;7.85;;;4.82;;
17812;SDS011;9030;50.792;8.320;2023-09-07T13:57:03;13.88;;;6.13;;
17812;SDS011;9030;50.792;8.320;2023-09-07T13:59:30;12.65;;;5.97;;
17812;SDS011;9030;50.792;8.320;2023-09-07T14:01:59;9.18;;;5.65;;
17812;SDS011;9030;50.792;8.320;2023-09-07T14:04:26;8.98;;;5.57;;
17812;SDS011;9030;50.792;8.320;2023-09-07T14:06:53;11.40;;;5.32;;
17812;SDS011;9030;50.792;8.320;2023-09-07T14:09:20;8.07;;;5.40;;
17812;SDS011;9030;50.792;8.320;2023-09-07T14:11:49;9.25;;;5.82;;
17812;SDS011;9030;50.792;8.320;2023-09-07T14:14:16;9.77;;;5.57;;
17812;SDS011;9030;50.792;8.320;2023-09-07T14:16:43;10.82;;;6.47;;
17812;SDS011;9030;50.792;8.320;2023-09-07T14:19:10;8.82;;;5.75;;
17812;SDS011;9030;50.792;8.320;2023-09-07T14:21:37;10.02;;;5.30;;
17812;SDS011;9030;50.792;8.320;2023-09-07T14:24:03;16.08;;;5.32;;
17812;SDS011;9030;50.792;8.320;2023-09-07T14:26:30;11.07;;;5.32;;
17812;SDS011;9030;50.792;8.320;2023-09-07T14:28:58;11.52;;;5.97;;
17812;SDS011;9030;50.792;8.320;2023-09-07T14:31:25;11.43;;;5.63;;
17812;SDS011;9030;50.792;8.320;2023-09-07T14:33:51;7.85;;;5.15;;
17812;SDS011;9030;50.792;8.320;2023-09-07T14:36:18;8.25;;;4.97;;
17812;SDS011;9030;50.792;8.320;2023-09-07T14:38:45;7.75;;;5.18;;
17812;SDS011;9030;50.792;8.320;2023-09-07T14:41:11;9.93;;;5.10;;
17812;SDS011;9030;50.792;8.320;2023-09-07T14:43:43;13.43;;;4.97;;
17812;SDS011;9030;50.792;8.320;2023-09-07T14:46:12;9.75;;;5.68;;
17812;SDS011;9030;50.792;8.320;2023-09-07T14:48:39;9.73;;;5.25;;
17812;SDS011;9030;50.792;8.320;2023-09-07T14:51:05;11.02;;;5.88;;
17812;SDS011;9030;50.792;8.320;2023-09-07T14:53:32;8.10;;;5.78;;